sensor_id;sensor_type;location;lat;lon;timestamp;P1;durP1;ratioP1;P2;durP2;ratioP2
80115;SDS011;69423;47.608;19.366;2023-04-25T00:00:08;7.03;;;7.03;;
80115;SDS011;69423;47.608;19.366;2023-04-25T00:00:39;6.50;;;6.50;;
80115;SDS011;69423;47.608;19.366;2023-04-25T00:01:10;7.40;;;7.33;;
80115;SDS011;69423;47.608;19.366;2023-04-25T00:01:43;7.73;;;7.70;;
80115;SDS011;69423;47.608;19.366;2023-04-25T00:02:14;7.73;;;7.63;;
80115;SDS011;69423;47.608;19.366;2023-04-25T00:02:45;7.20;;;7.20;;
80115;SDS011;69423;47.608;19.366;2023-04-25T00:03:16;7.17;;;7.17;;
80115;SDS011;69423;47.608;19.366;2023-04-25T00:03:48;7.70;;;7.53;;
80115;SDS011;69423;47.608;19.366;2023-04-25T00:04:19;7.33;;;7.13;;
80115;SDS011;69423;47.608;19.366;2023-04-25T00:04:51;7.00;;;6.90;;
80115;SDS011;69423;47.608;19.366;2023-04-25T00:05:23;8.10;;;7.77;;
80115;SDS011;69423;47.608;19.366;2023-04-25T00:05:54;7.90;;;7.53;;
80115;SDS011;69423;47.608;19.366;2023-04-25T00:06:27;8.87;;;8.43;;
80115;SDS011;69423;47.608;19.366;2023-04-25T00:06:57;12.93;;;12.40;;
80115;SDS011;69423;47.608;19.366;2023-04-25T00:07:31;8.47;;;8.47;;
80115;SDS011;69423;47.608;19.366;2023-04-25T00:08:03;7.40;;;7.40;;
80115;SDS011;69423;47.608;19.366;2023-04-25T00:08:35;7.00;;;7.00;;
80115;SDS011;69423;47.608;19.366;2023-04-25T00:09:06;7.97;;;7.97;;
80115;SDS011;69423;47.608;19.366;2023-04-25T00:09:41;7.20;;;7.20;;
80115;SDS011;69423;47.608;19.366;2023-04-25T00:10:12;7.63;;;7.63;;
80115;SDS011;69423;47.608;19.366;2023-04-25T00:10:43;7.60;;;7.60;;
80115;SDS011;69423;47.608;19.366;2023-04-25T00:11:14;7.83;;;7.83;;
80115;SDS011;69423;47.608;19.366;2023-04-25T00:11:45;7.77;;;7.77;;
80115;SDS011;69423;47.608;19.366;2023-04-25T00:12:16;8.23;;;8.23;;
80115;SDS011;69423;47.608;19.366;2023-04-25T00:12:47;8.03;;;8.03;;
80115;SDS011;69423;47.608;19.366;2023-04-25T00:13:18;7.63;;;7.63;;
80115;SDS011;69423;47.608;19.366;2023-04-25T00:13:49;8.37;;;8.37;;
80115;SDS011;69423;47.608;19.366;2023-04-25T00:14:24;9.23;;;9.23;;
80115;SDS011;69423;47.608;19.366;2023-04-25T00:14:55;7.93;;;7.93;;
80115;SDS011;69423;47.608;19.366;2023-04-25T00:15:30;7.53;;;7.50;;
80115;SDS011;69423;47.608;19.366;2023-04-25T00:16:01;7.27;;;7.27;;
80115;SDS011;69423;47.608;19.366;2023-04-25T00:16:33;7.60;;;7.60;;
80115;SDS011;69423;47.608;19.366;2023-04-25T00:17:05;8.40;;;8.40;;
80115;SDS011;69423;47.608;19.366;2023-04-25T00:17:36;8.00;;;8.00;;
80115;SDS011;69423;47.608;19.366;2023-04-25T00:18:08;7.20;;;7.17;;
80115;SDS011;69423;47.608;19.366;2023-04-25T00:18:39;7.73;;;7.63;;
80115;SDS011;69423;47.608;19.366;2023-04-25T00:19:11;7.23;;;7.23;;
80115;SDS011;69423;47.608;19.366;2023-04-25T00:19:42;6.67;;;6.67;;
80115;SDS011;69423;47.608;19.366;2023-04-25T00:20:15;8.57;;;8.57;;
80115;SDS011;69423;47.608;19.366;2023-04-25T00:20:46;7.43;;;7.43;;
80115;SDS011;69423;47.608;19.366;2023-04-25T00:21:18;7.43;;;7.43;;
80115;SDS011;69423;47.608;19.366;2023-04-25T00:21:50;8.57;;;8.53;;
80115;SDS011;69423;47.608;19.366;2023-04-25T00:22:21;8.00;;;7.83;;
80115;SDS011;69423;47.608;19.366;2023-04-25T00:22:52;8.07;;;7.93;;
80115;SDS011;69423;47.608;19.366;2023-04-25T00:23:26;10.03;;;9.97;;
80115;SDS011;69423;47.608;19.366;2023-04-25T00:23:57;8.90;;;8.67;;
80115;SDS011;69423;47.608;19.366;2023-04-25T00:24:28;7.80;;;7.50;;
80115;SDS011;69423;47.608;19.366;2023-04-25T00:24:58;8.47;;;8.17;;
80115;SDS011;69423;47.608;19.366;2023-04-25T00:25:30;7.60;;;7.37;;
80115;SDS011;69423;47.608;19.366;2023-04-25T00:26:01;8.80;;;8.53;;
80115;SDS011;69423;47.608;19.366;2023-04-25T00:26:33;8.43;;;8.20;;
80115;SDS011;69423;47.608;19.366;2023-04-25T00:27:05;7.87;;;7.83;;
80115;SDS011;69423;47.608;19.366;2023-04-25T00:27:36;7.80;;;7.60;;
80115;SDS011;69423;47.608;19.366;2023-04-25T00:28:09;8.00;;;7.73;;
80115;SDS011;69423;47.608;19.366;2023-04-25T00:28:40;7.83;;;7.70;;
80115;SDS011;69423;47.608;19.366;2023-04-25T00:29:11;8.27;;;7.90;;
80115;SDS011;69423;47.608;19.366;2023-04-25T00:29:42;7.80;;;7.43;;
80115;SDS011;69423;47.608;19.366;2023-04-25T00:30:13;7.27;;;7.00;;
80115;SDS011;69423;47.608;19.366;2023-04-25T00:30:44;7.30;;;7.17;;
80115;SDS011;69423;47.608;19.366;2023-04-25T00:31:15;7.13;;;7.13;;
80115;SDS011;69423;47.608;19.366;2023-04-25T00:31:46;8.13;;;8.13;;
80115;SDS011;69423;47.608;19.366;2023-04-25T00:32:16;8.37;;;8.37;;
80115;SDS011;69423;47.608;19.366;2023-04-25T00:32:50;7.43;;;7.27;;
80115;SDS011;69423;47.608;19.366;2023-04-25T00:33:21;7.20;;;6.90;;
80115;SDS011;69423;47.608;19.366;2023-04-25T00:33:52;10.90;;;10.43;;
80115;SDS011;69423;47.608;19.366;2023-04-25T00:34:23;8.20;;;7.97;;
80115;SDS011;69423;47.608;19.366;2023-04-25T00:34:54;7.47;;;7.17;;
80115;SDS011;69423;47.608;19.366;2023-04-25T00:35:26;6.87;;;6.63;;
80115;SDS011;69423;47.608;19.366;2023-04-25T00:35:57;7.13;;;7.13;;
80115;SDS011;69423;47.608;19.366;2023-04-25T00:36:28;6.83;;;6.83;;
80115;SDS011;69423;47.608;19.366;2023-04-25T00:36:59;6.43;;;6.43;;
80115;SDS011;69423;47.608;19.366;2023-04-25T00:37:32;6.47;;;6.47;;
80115;SDS011;69423;47.608;19.366;2023-04-25T00:38:03;7.13;;;7.13;;
80115;SDS011;69423;47.608;19.366;2023-04-25T00:38:34;7.33;;;7.33;;
80115;SDS011;69423;47.608;19.366;2023-04-25T00:39:05;6.53;;;6.53;;
80115;SDS011;69423;47.608;19.366;2023-04-25T00:39:36;6.87;;;6.87;;
80115;SDS011;69423;47.608;19.366;2023-04-25T00:40:07;7.13;;;7.13;;
80115;SDS011;69423;47.608;19.366;2023-04-25T00:40:39;7.30;;;7.30;;
80115;SDS011;69423;47.608;19.366;2023-04-25T00:41:09;7.20;;;7.20;;
80115;SDS011;69423;47.608;19.366;2023-04-25T00:41:41;6.87;;;6.87;;
80115;SDS011;69423;47.608;19.366;2023-04-25T00:42:11;7.07;;;7.07;;
80115;SDS011;69423;47.608;19.366;2023-04-25T00:42:43;7.00;;;7.00;;
80115;SDS011;69423;47.608;19.366;2023-04-25T00:43:15;6.87;;;6.87;;
80115;SDS011;69423;47.608;19.366;2023-04-25T00:43:47;6.30;;;6.30;;
80115;SDS011;69423;47.608;19.366;2023-04-25T00:44:19;6.47;;;6.47;;
80115;SDS011;69423;47.608;19.366;2023-04-25T00:44:51;6.03;;;6.03;;
80115;SDS011;69423;47.608;19.366;2023-04-25T00:45:23;7.80;;;7.80;;
80115;SDS011;69423;47.608;19.366;2023-04-25T00:46:00;6.37;;;6.30;;
80115;SDS011;69423;47.608;19.366;2023-04-25T00:46:31;6.30;;;6.27;;
80115;SDS011;69423;47.608;19.366;2023-04-25T00:47:03;6.30;;;6.27;;
80115;SDS011;69423;47.608;19.366;2023-04-25T00:47:35;5.97;;;5.90;;
80115;SDS011;69423;47.608;19.366;2023-04-25T00:48:06;6.17;;;6.17;;
80115;SDS011;69423;47.608;19.366;2023-04-25T00:48:37;6.40;;;6.33;;
80115;SDS011;69423;47.608;19.366;2023-04-25T00:49:08;6.17;;;6.13;;
80115;SDS011;69423;47.608;19.366;2023-04-25T00:49:39;5.83;;;5.83;;
80115;SDS011;69423;47.608;19.366;2023-04-25T00:50:10;6.13;;;6.13;;
80115;SDS011;69423;47.608;19.366;2023-04-25T00:50:43;6.53;;;6.53;;
80115;SDS011;69423;47.608;19.366;2023-04-25T00:51:24;6.43;;;6.43;;
80115;SDS011;69423;47.608;19.366;2023-04-25T00:51:56;6.07;;;6.07;;
80115;SDS011;69423;47.608;19.366;2023-04-25T00:52:27;6.13;;;6.13;;
80115;SDS011;69423;47.608;19.366;2023-04-25T00:52:58;5.90;;;5.90;;
80115;SDS011;69423;47.608;19.366;2023-04-25T00:53:30;5.80;;;5.77;;
80115;SDS011;69423;47.608;19.366;2023-04-25T00:54:02;5.70;;;5.70;;
80115;SDS011;69423;47.608;19.366;2023-04-25T00:54:33;5.77;;;5.77;;
80115;SDS011;69423;47.608;19.366;2023-04-25T00:55:04;5.57;;;5.57;;
80115;SDS011;69423;47.608;19.366;2023-04-25T00:55:35;7.80;;;7.80;;
80115;SDS011;69423;47.608;19.366;2023-04-25T00:56:06;5.70;;;5.70;;
80115;SDS011;69423;47.608;19.366;2023-04-25T00:56:38;5.97;;;5.97;;
80115;SDS011;69423;47.608;19.366;2023-04-25T00:57:09;5.80;;;5.80;;
80115;SDS011;69423;47.608;19.366;2023-04-25T00:57:41;6.07;;;6.07;;
80115;SDS011;69423;47.608;19.366;2023-04-25T00:58:12;5.93;;;5.93;;
80115;SDS011;69423;47.608;19.366;2023-04-25T00:58:44;6.87;;;6.87;;
80115;SDS011;69423;47.608;19.366;2023-04-25T00:59:15;6.03;;;6.03;;
80115;SDS011;69423;47.608;19.366;2023-04-25T00:59:46;6.73;;;6.73;;
80115;SDS011;69423;47.608;19.366;2023-04-25T01:00:17;5.97;;;5.93;;
80115;SDS011;69423;47.608;19.366;2023-04-25T01:00:49;7.67;;;7.57;;
80115;SDS011;69423;47.608;19.366;2023-04-25T01:01:22;5.77;;;5.70;;
80115;SDS011;69423;47.608;19.366;2023-04-25T01:01:53;6.03;;;5.93;;
80115;SDS011;69423;47.608;19.366;2023-04-25T01:02:25;6.10;;;5.93;;
80115;SDS011;69423;47.608;19.366;2023-04-25T01:02:57;6.13;;;5.97;;
80115;SDS011;69423;47.608;19.366;2023-04-25T01:03:30;5.83;;;5.83;;
80115;SDS011;69423;47.608;19.366;2023-04-25T01:04:05;5.77;;;5.77;;
80115;SDS011;69423;47.608;19.366;2023-04-25T01:04:37;5.17;;;5.17;;
80115;SDS011;69423;47.608;19.366;2023-04-25T01:05:09;5.37;;;5.37;;
80115;SDS011;69423;47.608;19.366;2023-04-25T01:05:43;5.33;;;5.33;;
80115;SDS011;69423;47.608;19.366;2023-04-25T01:06:14;4.80;;;4.80;;
80115;SDS011;69423;47.608;19.366;2023-04-25T01:06:45;6.20;;;6.20;;
80115;SDS011;69423;47.608;19.366;2023-04-25T01:07:16;6.33;;;6.23;;
80115;SDS011;69423;47.608;19.366;2023-04-25T01:07:47;5.60;;;5.53;;
80115;SDS011;69423;47.608;19.366;2023-04-25T01:08:18;5.03;;;5.03;;
80115;SDS011;69423;47.608;19.366;2023-04-25T01:08:53;5.10;;;5.10;;
80115;SDS011;69423;47.608;19.366;2023-04-25T01:09:24;5.07;;;5.07;;
80115;SDS011;69423;47.608;19.366;2023-04-25T01:09:56;7.27;;;7.27;;
80115;SDS011;69423;47.608;19.366;2023-04-25T01:10:27;6.50;;;6.50;;
80115;SDS011;69423;47.608;19.366;2023-04-25T01:10:58;4.77;;;4.73;;
80115;SDS011;69423;47.608;19.366;2023-04-25T01:11:29;5.17;;;5.10;;
80115;SDS011;69423;47.608;19.366;2023-04-25T01:12:00;5.00;;;5.00;;
80115;SDS011;69423;47.608;19.366;2023-04-25T01:12:31;4.77;;;4.77;;
80115;SDS011;69423;47.608;19.366;2023-04-25T01:13:02;5.30;;;5.30;;
80115;SDS011;69423;47.608;19.366;2023-04-25T01:13:34;5.80;;;5.80;;
80115;SDS011;69423;47.608;19.366;2023-04-25T01:14:05;5.67;;;5.67;;
80115;SDS011;69423;47.608;19.366;2023-04-25T01:14:36;5.53;;;5.53;;
80115;SDS011;69423;47.608;19.366;2023-04-25T01:15:07;5.80;;;5.80;;
80115;SDS011;69423;47.608;19.366;2023-04-25T01:15:38;5.00;;;5.00;;
80115;SDS011;69423;47.608;19.366;2023-04-25T01:16:09;5.47;;;5.47;;
80115;SDS011;69423;47.608;19.366;2023-04-25T01:16:40;4.60;;;4.60;;
80115;SDS011;69423;47.608;19.366;2023-04-25T01:17:11;4.63;;;4.63;;
80115;SDS011;69423;47.608;19.366;2023-04-25T01:17:43;5.13;;;5.13;;
80115;SDS011;69423;47.608;19.366;2023-04-25T01:18:14;6.00;;;6.00;;
80115;SDS011;69423;47.608;19.366;2023-04-25T01:18:46;4.97;;;4.97;;
80115;SDS011;69423;47.608;19.366;2023-04-25T01:19:18;4.20;;;4.20;;
80115;SDS011;69423;47.608;19.366;2023-04-25T01:19:50;4.53;;;4.53;;
80115;SDS011;69423;47.608;19.366;2023-04-25T01:20:22;4.47;;;4.47;;
80115;SDS011;69423;47.608;19.366;2023-04-25T01:20:53;5.20;;;5.20;;
80115;SDS011;69423;47.608;19.366;2023-04-25T01:21:26;4.93;;;4.93;;
80115;SDS011;69423;47.608;19.366;2023-04-25T01:21:58;5.43;;;5.43;;
80115;SDS011;69423;47.608;19.366;2023-04-25T01:22:29;4.33;;;4.33;;
80115;SDS011;69423;47.608;19.366;2023-04-25T01:23:00;5.27;;;5.27;;
80115;SDS011;69423;47.608;19.366;2023-04-25T01:23:33;4.53;;;4.53;;
80115;SDS011;69423;47.608;19.366;2023-04-25T01:24:04;4.23;;;4.23;;
80115;SDS011;69423;47.608;19.366;2023-04-25T01:24:36;4.70;;;4.70;;
80115;SDS011;69423;47.608;19.366;2023-04-25T01:25:08;4.93;;;4.93;;
80115;SDS011;69423;47.608;19.366;2023-04-25T01:25:40;4.60;;;4.60;;
80115;SDS011;69423;47.608;19.366;2023-04-25T01:26:11;4.30;;;4.30;;
80115;SDS011;69423;47.608;19.366;2023-04-25T01:26:42;4.50;;;4.47;;
80115;SDS011;69423;47.608;19.366;2023-04-25T01:27:20;4.43;;;4.43;;
80115;SDS011;69423;47.608;19.366;2023-04-25T01:27:53;4.53;;;4.53;;
80115;SDS011;69423;47.608;19.366;2023-04-25T01:28:24;4.27;;;4.27;;
80115;SDS011;69423;47.608;19.366;2023-04-25T01:28:55;4.13;;;4.13;;
80115;SDS011;69423;47.608;19.366;2023-04-25T01:29:26;5.07;;;5.07;;
80115;SDS011;69423;47.608;19.366;2023-04-25T01:29:58;6.00;;;6.00;;
80115;SDS011;69423;47.608;19.366;2023-04-25T01:30:30;4.53;;;4.53;;
80115;SDS011;69423;47.608;19.366;2023-04-25T01:31:01;5.07;;;5.07;;
80115;SDS011;69423;47.608;19.366;2023-04-25T01:31:33;4.27;;;4.27;;
80115;SDS011;69423;47.608;19.366;2023-04-25T01:32:05;5.97;;;5.97;;
80115;SDS011;69423;47.608;19.366;2023-04-25T01:32:37;5.00;;;5.00;;
80115;SDS011;69423;47.608;19.366;2023-04-25T01:33:10;5.43;;;5.43;;
80115;SDS011;69423;47.608;19.366;2023-04-25T01:33:44;5.40;;;5.40;;
80115;SDS011;69423;47.608;19.366;2023-04-25T01:34:15;5.10;;;5.10;;
80115;SDS011;69423;47.608;19.366;2023-04-25T01:34:46;4.53;;;4.50;;
80115;SDS011;69423;47.608;19.366;2023-04-25T01:35:17;5.43;;;5.43;;
80115;SDS011;69423;47.608;19.366;2023-04-25T01:35:48;4.53;;;4.53;;
80115;SDS011;69423;47.608;19.366;2023-04-25T01:36:19;4.47;;;4.47;;
80115;SDS011;69423;47.608;19.366;2023-04-25T01:36:51;4.77;;;4.77;;
80115;SDS011;69423;47.608;19.366;2023-04-25T01:37:24;4.97;;;4.97;;
80115;SDS011;69423;47.608;19.366;2023-04-25T01:37:54;5.07;;;5.07;;
80115;SDS011;69423;47.608;19.366;2023-04-25T01:38:25;4.50;;;4.50;;
80115;SDS011;69423;47.608;19.366;2023-04-25T01:38:57;4.80;;;4.80;;
80115;SDS011;69423;47.608;19.366;2023-04-25T01:39:28;5.43;;;5.43;;
80115;SDS011;69423;47.608;19.366;2023-04-25T01:39:59;4.47;;;4.47;;
80115;SDS011;69423;47.608;19.366;2023-04-25T01:40:30;5.33;;;5.33;;
80115;SDS011;69423;47.608;19.366;2023-04-25T01:41:03;4.93;;;4.93;;
80115;SDS011;69423;47.608;19.366;2023-04-25T01:41:35;4.70;;;4.70;;
80115;SDS011;69423;47.608;19.366;2023-04-25T01:42:07;4.70;;;4.70;;
80115;SDS011;69423;47.608;19.366;2023-04-25T01:42:39;4.73;;;4.73;;
80115;SDS011;69423;47.608;19.366;2023-04-25T01:43:13;4.77;;;4.77;;
80115;SDS011;69423;47.608;19.366;2023-04-25T01:43:45;4.80;;;4.80;;
80115;SDS011;69423;47.608;19.366;2023-04-25T01:44:16;4.67;;;4.67;;
80115;SDS011;69423;47.608;19.366;2023-04-25T01:44:47;4.67;;;4.63;;
80115;SDS011;69423;47.608;19.366;2023-04-25T01:45:17;4.70;;;4.63;;
80115;SDS011;69423;47.608;19.366;2023-04-25T01:45:49;4.40;;;4.40;;
80115;SDS011;69423;47.608;19.366;2023-04-25T01:46:20;4.70;;;4.70;;
80115;SDS011;69423;47.608;19.366;2023-04-25T01:46:51;5.67;;;5.63;;
80115;SDS011;69423;47.608;19.366;2023-04-25T01:47:22;5.30;;;5.17;;
80115;SDS011;69423;47.608;19.366;2023-04-25T01:47:53;6.23;;;6.07;;
80115;SDS011;69423;47.608;19.366;2023-04-25T01:48:24;6.20;;;6.20;;
80115;SDS011;69423;47.608;19.366;2023-04-25T01:48:55;5.43;;;5.43;;
80115;SDS011;69423;47.608;19.366;2023-04-25T01:49:26;5.70;;;5.70;;
80115;SDS011;69423;47.608;19.366;2023-04-25T01:49:57;6.17;;;6.17;;
80115;SDS011;69423;47.608;19.366;2023-04-25T01:50:28;4.93;;;4.93;;
80115;SDS011;69423;47.608;19.366;2023-04-25T01:50:59;5.30;;;5.30;;
80115;SDS011;69423;47.608;19.366;2023-04-25T01:51:30;5.17;;;5.17;;
80115;SDS011;69423;47.608;19.366;2023-04-25T01:52:02;6.17;;;6.17;;
80115;SDS011;69423;47.608;19.366;2023-04-25T01:52:32;6.10;;;6.10;;
80115;SDS011;69423;47.608;19.366;2023-04-25T01:53:04;4.83;;;4.83;;
80115;SDS011;69423;47.608;19.366;2023-04-25T01:53:35;4.77;;;4.77;;
80115;SDS011;69423;47.608;19.366;2023-04-25T01:54:06;4.83;;;4.83;;
80115;SDS011;69423;47.608;19.366;2023-04-25T01:54:38;4.90;;;4.90;;
80115;SDS011;69423;47.608;19.366;2023-04-25T01:55:14;5.07;;;5.07;;
80115;SDS011;69423;47.608;19.366;2023-04-25T01:55:45;5.00;;;5.00;;
80115;SDS011;69423;47.608;19.366;2023-04-25T01:56:17;6.83;;;6.83;;
80115;SDS011;69423;47.608;19.366;2023-04-25T01:56:51;6.70;;;6.70;;
80115;SDS011;69423;47.608;19.366;2023-04-25T01:57:22;6.97;;;6.97;;
80115;SDS011;69423;47.608;19.366;2023-04-25T01:57:53;7.43;;;7.43;;
80115;SDS011;69423;47.608;19.366;2023-04-25T01:58:24;6.33;;;6.33;;
80115;SDS011;69423;47.608;19.366;2023-04-25T01:58:55;6.07;;;6.07;;
80115;SDS011;69423;47.608;19.366;2023-04-25T01:59:26;5.40;;;5.40;;
80115;SDS011;69423;47.608;19.366;2023-04-25T01:59:58;5.40;;;5.40;;
80115;SDS011;69423;47.608;19.366;2023-04-25T02:00:31;7.50;;;7.50;;
80115;SDS011;69423;47.608;19.366;2023-04-25T02:01:02;7.00;;;7.00;;
80115;SDS011;69423;47.608;19.366;2023-04-25T02:01:32;5.73;;;5.73;;
80115;SDS011;69423;47.608;19.366;2023-04-25T02:02:03;6.00;;;6.00;;
80115;SDS011;69423;47.608;19.366;2023-04-25T02:02:35;5.70;;;5.70;;
80115;SDS011;69423;47.608;19.366;2023-04-25T02:03:06;5.53;;;5.53;;
80115;SDS011;69423;47.608;19.366;2023-04-25T02:03:38;5.37;;;5.37;;
80115;SDS011;69423;47.608;19.366;2023-04-25T02:04:09;5.53;;;5.53;;
80115;SDS011;69423;47.608;19.366;2023-04-25T02:04:40;6.03;;;6.03;;
80115;SDS011;69423;47.608;19.366;2023-04-25T02:05:11;8.13;;;8.13;;
80115;SDS011;69423;47.608;19.366;2023-04-25T02:05:42;5.63;;;5.63;;
80115;SDS011;69423;47.608;19.366;2023-04-25T02:06:12;5.67;;;5.67;;
80115;SDS011;69423;47.608;19.366;2023-04-25T02:06:43;5.70;;;5.70;;
80115;SDS011;69423;47.608;19.366;2023-04-25T02:07:14;7.07;;;7.07;;
80115;SDS011;69423;47.608;19.366;2023-04-25T02:07:46;6.60;;;6.60;;
80115;SDS011;69423;47.608;19.366;2023-04-25T02:08:18;6.33;;;6.23;;
80115;SDS011;69423;47.608;19.366;2023-04-25T02:08:49;8.80;;;8.40;;
80115;SDS011;69423;47.608;19.366;2023-04-25T02:09:20;6.27;;;6.13;;
80115;SDS011;69423;47.608;19.366;2023-04-25T02:09:51;5.87;;;5.87;;
80115;SDS011;69423;47.608;19.366;2023-04-25T02:10:22;6.07;;;6.07;;
80115;SDS011;69423;47.608;19.366;2023-04-25T02:10:53;6.20;;;6.20;;
80115;SDS011;69423;47.608;19.366;2023-04-25T02:11:24;7.93;;;7.93;;
80115;SDS011;69423;47.608;19.366;2023-04-25T02:11:55;5.70;;;5.70;;
80115;SDS011;69423;47.608;19.366;2023-04-25T02:12:27;5.90;;;5.90;;
80115;SDS011;69423;47.608;19.366;2023-04-25T02:12:58;6.33;;;6.33;;
80115;SDS011;69423;47.608;19.366;2023-04-25T02:13:29;6.23;;;6.23;;
80115;SDS011;69423;47.608;19.366;2023-04-25T02:14:00;6.40;;;6.40;;
80115;SDS011;69423;47.608;19.366;2023-04-25T02:14:31;5.93;;;5.93;;
80115;SDS011;69423;47.608;19.366;2023-04-25T02:15:02;6.90;;;6.90;;
80115;SDS011;69423;47.608;19.366;2023-04-25T02:15:33;6.77;;;6.77;;
80115;SDS011;69423;47.608;19.366;2023-04-25T02:16:03;6.77;;;6.77;;
80115;SDS011;69423;47.608;19.366;2023-04-25T02:16:34;6.47;;;6.40;;
80115;SDS011;69423;47.608;19.366;2023-04-25T02:17:06;7.03;;;7.00;;
80115;SDS011;69423;47.608;19.366;2023-04-25T02:17:37;6.40;;;6.40;;
80115;SDS011;69423;47.608;19.366;2023-04-25T02:18:08;6.27;;;6.27;;
80115;SDS011;69423;47.608;19.366;2023-04-25T02:18:40;6.43;;;6.43;;
80115;SDS011;69423;47.608;19.366;2023-04-25T02:19:11;6.73;;;6.73;;
80115;SDS011;69423;47.608;19.366;2023-04-25T02:19:42;7.03;;;7.03;;
80115;SDS011;69423;47.608;19.366;2023-04-25T02:20:13;6.83;;;6.83;;
80115;SDS011;69423;47.608;19.366;2023-04-25T02:20:46;6.80;;;6.80;;
80115;SDS011;69423;47.608;19.366;2023-04-25T02:21:17;6.17;;;6.17;;
80115;SDS011;69423;47.608;19.366;2023-04-25T02:21:48;5.83;;;5.83;;
80115;SDS011;69423;47.608;19.366;2023-04-25T02:22:19;6.50;;;6.50;;
80115;SDS011;69423;47.608;19.366;2023-04-25T02:22:50;6.33;;;6.33;;
80115;SDS011;69423;47.608;19.366;2023-04-25T02:23:21;8.37;;;8.37;;
80115;SDS011;69423;47.608;19.366;2023-04-25T02:23:52;6.50;;;6.50;;
80115;SDS011;69423;47.608;19.366;2023-04-25T02:24:24;6.57;;;6.57;;
80115;SDS011;69423;47.608;19.366;2023-04-25T02:24:55;6.60;;;6.60;;
80115;SDS011;69423;47.608;19.366;2023-04-25T02:25:26;8.17;;;8.17;;
80115;SDS011;69423;47.608;19.366;2023-04-25T02:25:57;6.90;;;6.90;;
80115;SDS011;69423;47.608;19.366;2023-04-25T02:26:28;7.13;;;7.13;;
80115;SDS011;69423;47.608;19.366;2023-04-25T02:26:59;6.50;;;6.50;;
80115;SDS011;69423;47.608;19.366;2023-04-25T02:27:30;7.13;;;7.13;;
80115;SDS011;69423;47.608;19.366;2023-04-25T02:28:01;6.37;;;6.37;;
80115;SDS011;69423;47.608;19.366;2023-04-25T02:28:32;6.57;;;6.57;;
80115;SDS011;69423;47.608;19.366;2023-04-25T02:29:03;7.80;;;7.80;;
80115;SDS011;69423;47.608;19.366;2023-04-25T02:29:33;6.83;;;6.83;;
80115;SDS011;69423;47.608;19.366;2023-04-25T02:30:05;6.43;;;6.43;;
80115;SDS011;69423;47.608;19.366;2023-04-25T02:30:37;6.27;;;6.27;;
80115;SDS011;69423;47.608;19.366;2023-04-25T02:31:08;6.53;;;6.53;;
80115;SDS011;69423;47.608;19.366;2023-04-25T02:31:39;6.67;;;6.67;;
80115;SDS011;69423;47.608;19.366;2023-04-25T02:32:10;6.60;;;6.60;;
80115;SDS011;69423;47.608;19.366;2023-04-25T02:32:41;6.77;;;6.77;;
80115;SDS011;69423;47.608;19.366;2023-04-25T02:33:12;7.10;;;7.10;;
80115;SDS011;69423;47.608;19.366;2023-04-25T02:33:42;6.13;;;6.13;;
80115;SDS011;69423;47.608;19.366;2023-04-25T02:34:14;7.73;;;7.73;;
80115;SDS011;69423;47.608;19.366;2023-04-25T02:34:45;6.63;;;6.63;;
80115;SDS011;69423;47.608;19.366;2023-04-25T02:35:16;6.77;;;6.77;;
80115;SDS011;69423;47.608;19.366;2023-04-25T02:35:47;7.20;;;7.20;;
80115;SDS011;69423;47.608;19.366;2023-04-25T02:36:18;6.53;;;6.53;;
80115;SDS011;69423;47.608;19.366;2023-04-25T02:36:49;6.00;;;6.00;;
80115;SDS011;69423;47.608;19.366;2023-04-25T02:37:23;6.87;;;6.87;;
80115;SDS011;69423;47.608;19.366;2023-04-25T02:37:54;6.27;;;6.27;;
80115;SDS011;69423;47.608;19.366;2023-04-25T02:38:25;6.17;;;6.17;;
80115;SDS011;69423;47.608;19.366;2023-04-25T02:38:56;6.57;;;6.57;;
80115;SDS011;69423;47.608;19.366;2023-04-25T02:39:27;6.33;;;6.33;;
80115;SDS011;69423;47.608;19.366;2023-04-25T02:39:58;6.47;;;6.47;;
80115;SDS011;69423;47.608;19.366;2023-04-25T02:40:28;8.13;;;8.13;;
80115;SDS011;69423;47.608;19.366;2023-04-25T02:41:00;6.10;;;6.10;;
80115;SDS011;69423;47.608;19.366;2023-04-25T02:41:31;6.40;;;6.40;;
80115;SDS011;69423;47.608;19.366;2023-04-25T02:42:01;6.60;;;6.60;;
80115;SDS011;69423;47.608;19.366;2023-04-25T02:42:33;6.60;;;6.60;;
80115;SDS011;69423;47.608;19.366;2023-04-25T02:43:04;6.57;;;6.57;;
80115;SDS011;69423;47.608;19.366;2023-04-25T02:43:35;5.90;;;5.90;;
80115;SDS011;69423;47.608;19.366;2023-04-25T02:44:06;6.23;;;6.23;;
80115;SDS011;69423;47.608;19.366;2023-04-25T02:44:37;6.20;;;6.20;;
80115;SDS011;69423;47.608;19.366;2023-04-25T02:45:08;6.10;;;6.10;;
80115;SDS011;69423;47.608;19.366;2023-04-25T02:45:39;6.50;;;6.50;;
80115;SDS011;69423;47.608;19.366;2023-04-25T02:46:10;7.03;;;7.03;;
80115;SDS011;69423;47.608;19.366;2023-04-25T02:46:40;7.83;;;7.83;;
80115;SDS011;69423;47.608;19.366;2023-04-25T02:47:11;6.63;;;6.63;;
80115;SDS011;69423;47.608;19.366;2023-04-25T02:47:42;6.50;;;6.50;;
80115;SDS011;69423;47.608;19.366;2023-04-25T02:48:13;7.57;;;7.57;;
80115;SDS011;69423;47.608;19.366;2023-04-25T02:48:44;7.77;;;7.77;;
80115;SDS011;69423;47.608;19.366;2023-04-25T02:49:15;7.40;;;7.40;;
80115;SDS011;69423;47.608;19.366;2023-04-25T02:49:46;6.53;;;6.53;;
80115;SDS011;69423;47.608;19.366;2023-04-25T02:50:17;6.30;;;6.23;;
80115;SDS011;69423;47.608;19.366;2023-04-25T02:50:48;6.17;;;6.13;;
80115;SDS011;69423;47.608;19.366;2023-04-25T02:51:19;6.07;;;6.07;;
80115;SDS011;69423;47.608;19.366;2023-04-25T02:51:50;6.03;;;6.03;;
80115;SDS011;69423;47.608;19.366;2023-04-25T02:52:21;6.53;;;6.53;;
80115;SDS011;69423;47.608;19.366;2023-04-25T02:52:52;6.90;;;6.90;;
80115;SDS011;69423;47.608;19.366;2023-04-25T02:53:23;6.90;;;6.90;;
80115;SDS011;69423;47.608;19.366;2023-04-25T02:53:54;6.20;;;6.20;;
80115;SDS011;69423;47.608;19.366;2023-04-25T02:54:24;6.17;;;6.17;;
80115;SDS011;69423;47.608;19.366;2023-04-25T02:54:55;8.90;;;8.90;;
80115;SDS011;69423;47.608;19.366;2023-04-25T02:55:26;7.63;;;7.63;;
80115;SDS011;69423;47.608;19.366;2023-04-25T02:55:57;6.17;;;6.17;;
80115;SDS011;69423;47.608;19.366;2023-04-25T02:56:29;6.00;;;6.00;;
80115;SDS011;69423;47.608;19.366;2023-04-25T02:57:00;6.30;;;6.30;;
80115;SDS011;69423;47.608;19.366;2023-04-25T02:57:32;6.97;;;6.97;;
80115;SDS011;69423;47.608;19.366;2023-04-25T02:58:04;6.07;;;6.07;;
80115;SDS011;69423;47.608;19.366;2023-04-25T02:58:35;6.80;;;6.80;;
80115;SDS011;69423;47.608;19.366;2023-04-25T02:59:06;6.83;;;6.83;;
80115;SDS011;69423;47.608;19.366;2023-04-25T02:59:37;6.37;;;6.37;;
80115;SDS011;69423;47.608;19.366;2023-04-25T03:00:07;6.13;;;6.13;;
80115;SDS011;69423;47.608;19.366;2023-04-25T03:00:39;5.77;;;5.77;;
80115;SDS011;69423;47.608;19.366;2023-04-25T03:01:10;7.37;;;7.37;;
80115;SDS011;69423;47.608;19.366;2023-04-25T03:01:40;6.57;;;6.57;;
80115;SDS011;69423;47.608;19.366;2023-04-25T03:02:11;5.70;;;5.70;;
80115;SDS011;69423;47.608;19.366;2023-04-25T03:02:42;5.87;;;5.87;;
80115;SDS011;69423;47.608;19.366;2023-04-25T03:03:14;6.80;;;6.80;;
80115;SDS011;69423;47.608;19.366;2023-04-25T03:03:47;6.27;;;6.27;;
80115;SDS011;69423;47.608;19.366;2023-04-25T03:04:18;6.07;;;6.07;;
80115;SDS011;69423;47.608;19.366;2023-04-25T03:04:49;5.87;;;5.87;;
80115;SDS011;69423;47.608;19.366;2023-04-25T03:05:20;7.77;;;7.77;;
80115;SDS011;69423;47.608;19.366;2023-04-25T03:05:51;7.20;;;7.20;;
80115;SDS011;69423;47.608;19.366;2023-04-25T03:06:22;6.67;;;6.67;;